createdAt,value
2023-03-13T00:02:38.790Z,6.245117
2023-03-13T00:06:03.986Z,6.245117
2023-03-13T00:09:29.155Z,6.144409
2023-03-13T00:12:54.365Z,6.15448
2023-03-13T00:16:19.569Z,6.184692
2023-03-13T00:19:44.725Z,6.15448
2023-03-13T00:23:09.905Z,6.174622
2023-03-13T00:26:35.075Z,6.184692
2023-03-13T00:30:00.287Z,6.214905
2023-03-13T00:33:25.467Z,6.224976
2023-03-13T00:36:50.647Z,6.15448
2023-03-13T00:40:15.853Z,6.144409
2023-03-13T00:43:41.023Z,6.15448
2023-03-13T00:47:06.233Z,6.194763
2023-03-13T00:50:31.383Z,6.184692
2023-03-13T00:53:56.571Z,6.174622
2023-03-13T00:57:21.738Z,6.144409
2023-03-13T01:00:46.950Z,6.194763
2023-03-13T01:04:12.195Z,6.224976
2023-03-13T01:07:37.353Z,6.355896
2023-03-13T01:11:02.537Z,6.365967
2023-03-13T01:14:27.772Z,6.426392
2023-03-13T01:17:52.948Z,6.456604
2023-03-13T01:21:18.146Z,6.517029
2023-03-13T01:24:43.314Z,6.506958
2023-03-13T01:28:08.500Z,6.486816
2023-03-13T01:31:33.805Z,6.456604
2023-03-13T01:34:58.869Z,6.476746
2023-03-13T01:38:24.078Z,6.486816
2023-03-13T01:41:49.245Z,6.53717
2023-03-13T01:45:14.439Z,6.517029
2023-03-13T01:48:39.621Z,6.587524
2023-03-13T01:52:04.792Z,6.587524
2023-03-13T01:55:30.013Z,6.577454
2023-03-13T01:58:55.162Z,6.53717
2023-03-13T02:02:20.378Z,6.53717
2023-03-13T02:05:45.511Z,6.557312
2023-03-13T02:09:10.685Z,6.557312
2023-03-13T02:12:35.898Z,6.557312
2023-03-13T02:16:01.190Z,6.617737
2023-03-13T02:19:26.246Z,6.65802
2023-03-13T02:22:51.431Z,6.668091
2023-03-13T02:26:16.601Z,6.668091
2023-03-13T02:29:41.805Z,6.738586
2023-03-13T02:33:06.961Z,6.728516
2023-03-13T02:36:32.139Z,6.738586
2023-03-13T02:39:57.340Z,6.78894
2023-03-13T02:43:22.515Z,6.799011
2023-03-13T02:46:47.899Z,6.758728
2023-03-13T02:50:12.930Z,6.738586
2023-03-13T02:53:38.146Z,6.688232
2023-03-13T02:57:03.354Z,6.698303
2023-03-13T03:00:28.652Z,6.617737
2023-03-13T03:03:53.902Z,6.637878
2023-03-13T03:07:18.959Z,6.587524
2023-03-13T03:10:44.162Z,6.617737
2023-03-13T03:14:09.343Z,6.587524
2023-03-13T03:17:34.558Z,6.587524
2023-03-13T03:20:59.768Z,6.547241
2023-03-13T03:24:24.913Z,6.517029
2023-03-13T03:27:50.125Z,6.547241
2023-03-13T03:31:16.145Z,6.547241
2023-03-13T03:34:41.198Z,6.547241
2023-03-13T03:38:06.430Z,6.577454
2023-03-13T03:41:31.559Z,6.476746
2023-03-13T03:44:56.755Z,6.53717
2023-03-13T03:48:21.943Z,6.517029
2023-03-13T03:51:47.109Z,6.476746
2023-03-13T03:55:12.314Z,6.517029
2023-03-13T03:58:37.489Z,6.53717
2023-03-13T04:02:02.696Z,6.506958
2023-03-13T04:05:27.851Z,6.53717
2023-03-13T04:08:53.036Z,6.547241
2023-03-13T04:12:18.271Z,6.547241
2023-03-13T04:15:43.403Z,6.53717
2023-03-13T04:19:08.631Z,6.547241
2023-03-13T04:22:33.825Z,6.557312
2023-03-13T04:25:59.008Z,6.547241
2023-03-13T04:29:24.296Z,6.53717
2023-03-13T04:32:49.500Z,6.506958
2023-03-13T04:36:14.863Z,6.506958
2023-03-13T04:39:39.993Z,6.506958
2023-03-13T04:43:05.193Z,6.486816
2023-03-13T04:46:30.441Z,6.517029
2023-03-13T04:49:55.561Z,6.517029
2023-03-13T04:53:20.768Z,6.557312
2023-03-13T04:56:45.976Z,6.547241
2023-03-13T05:00:11.180Z,6.577454
2023-03-13T05:03:36.387Z,6.557312
2023-03-13T05:07:01.557Z,6.587524
2023-03-13T05:10:26.778Z,6.577454
2023-03-13T05:13:52.492Z,6.617737
2023-03-13T05:17:17.740Z,6.668091
2023-03-13T05:20:42.932Z,6.688232
2023-03-13T05:24:08.114Z,6.668091
2023-03-13T05:27:33.320Z,6.577454
2023-03-13T05:30:58.587Z,6.557312
2023-03-13T05:34:23.721Z,6.577454
2023-03-13T05:37:48.940Z,6.637878
2023-03-13T05:41:14.113Z,6.617737
2023-03-13T05:44:39.330Z,6.65802
2023-03-13T05:48:04.560Z,6.809082
2023-03-13T05:51:29.718Z,7.091064
2023-03-13T05:54:54.944Z,7.171631
2023-03-13T05:58:20.134Z,7.131348
2023-03-13T06:01:45.352Z,7.050781
2023-03-13T06:05:10.566Z,7.060852
2023-03-13T06:08:35.735Z,7.101135
2023-03-13T06:12:00.955Z,7.171631
2023-03-13T06:15:26.087Z,7.242126
2023-03-13T06:18:51.310Z,7.211914
2023-03-13T06:22:16.536Z,7.312622
2023-03-13T06:25:41.730Z,7.272339
2023-03-13T06:29:06.957Z,7.302551
2023-03-13T06:32:32.355Z,7.151489
2023-03-13T06:35:57.387Z,7.171631
2023-03-13T06:39:22.587Z,7.171631
2023-03-13T06:42:47.793Z,7.201843
2023-03-13T06:46:13.019Z,7.252197
2023-03-13T06:49:38.233Z,7.252197
2023-03-13T06:53:03.426Z,7.16156
2023-03-13T06:56:28.600Z,6.990356
2023-03-13T06:59:53.807Z,6.919861
2023-03-13T07:03:19.095Z,7.101135
2023-03-13T07:06:44.227Z,7.302551
2023-03-13T07:10:09.449Z,7.53418
2023-03-13T07:13:34.730Z,7.574463
2023-03-13T07:16:59.936Z,7.6651
2023-03-13T07:20:25.258Z,7.715454
2023-03-13T07:23:50.419Z,7.816162
2023-03-13T07:27:15.701Z,7.78595
2023-03-13T07:30:40.817Z,7.745667
2023-03-13T07:34:05.990Z,7.675171
2023-03-13T07:37:31.218Z,7.685242
2023-03-13T07:40:56.374Z,7.715454
2023-03-13T07:44:21.589Z,7.685242
2023-03-13T07:47:46.757Z,7.685242
2023-03-13T07:51:12.311Z,7.675171
2023-03-13T07:54:37.185Z,7.675171
2023-03-13T07:58:02.353Z,7.765808
2023-03-13T08:01:30.418Z,7.735596
2023-03-13T08:04:52.703Z,7.735596
2023-03-13T08:08:17.893Z,7.78595
2023-03-13T08:11:43.087Z,7.846375
2023-03-13T08:15:08.282Z,7.826233
2023-03-13T08:18:33.420Z,7.866516
2023-03-13T08:21:58.609Z,7.866516
2023-03-13T08:25:23.787Z,7.91687
2023-03-13T08:28:48.991Z,7.997437
2023-03-13T08:32:14.150Z,8.03772
2023-03-13T08:35:39.370Z,8.118286
2023-03-13T08:39:04.542Z,8.178711
2023-03-13T08:42:29.720Z,8.259277
2023-03-13T08:45:55.028Z,8.329773
2023-03-13T08:49:20.149Z,8.370056
2023-03-13T08:52:45.292Z,8.430481
2023-03-13T08:56:10.499Z,8.470764
2023-03-13T08:59:35.685Z,8.500977
2023-03-13T09:03:00.905Z,8.531189
2023-03-13T09:06:26.079Z,8.581543
2023-03-13T09:09:51.286Z,8.531189
2023-03-13T09:13:16.513Z,8.561401
2023-03-13T09:16:41.734Z,8.611755
2023-03-13T09:20:07.034Z,8.682251
2023-03-13T09:23:32.208Z,8.742676
2023-03-13T09:27:01.188Z,8.843384
2023-03-13T09:30:22.643Z,8.913879
2023-03-13T09:33:47.864Z,8.964233
2023-03-13T09:37:13.088Z,8.984375
2023-03-13T09:40:38.268Z,9.0448
2023-03-13T09:44:03.436Z,9.095154
2023-03-13T09:47:28.696Z,9.145508
2023-03-13T09:50:53.840Z,9.165649
2023-03-13T09:54:19.057Z,9.195862
2023-03-13T09:57:44.216Z,9.236145
2023-03-13T10:01:09.476Z,9.286499
2023-03-13T10:04:34.662Z,9.326782
2023-03-13T10:07:59.870Z,9.346924
2023-03-13T10:11:25.192Z,9.356995
2023-03-13T10:14:50.329Z,9.326782
2023-03-13T10:18:15.494Z,9.326782
2023-03-13T10:21:40.673Z,9.387207
2023-03-13T10:25:05.875Z,9.457703
2023-03-13T10:28:31.285Z,9.538269
2023-03-13T10:31:56.240Z,9.638977
2023-03-13T10:35:21.435Z,9.67926
2023-03-13T10:38:46.634Z,9.719543
2023-03-13T10:42:11.820Z,9.739685
2023-03-13T10:45:37.060Z,9.759827
2023-03-13T10:49:02.224Z,9.749756
2023-03-13T10:52:27.427Z,9.709473
2023-03-13T10:55:52.614Z,9.739685
2023-03-13T10:59:17.856Z,9.709473
2023-03-13T11:02:43.244Z,9.709473
2023-03-13T11:06:08.321Z,9.749756
2023-03-13T11:09:33.547Z,9.860535
2023-03-13T11:12:58.740Z,9.870605
2023-03-13T11:16:23.997Z,9.890747
2023-03-13T11:19:49.245Z,9.900818
2023-03-13T11:23:14.328Z,9.961243
2023-03-13T11:26:39.540Z,10.041809
2023-03-13T11:30:04.760Z,10.072021
2023-03-13T11:33:29.931Z,9.971313
2023-03-13T11:36:55.153Z,9.961243
2023-03-13T11:40:20.335Z,9.961243
2023-03-13T11:43:45.626Z,9.961243
2023-03-13T11:47:10.867Z,10.041809
2023-03-13T11:50:36.048Z,10.082092
2023-03-13T11:54:02.121Z,10.082092
2023-03-13T11:57:26.470Z,10.112305
2023-03-13T12:00:51.718Z,10.223083
2023-03-13T12:04:16.883Z,10.273438
2023-03-13T12:07:42.106Z,10.293579
2023-03-13T12:11:07.323Z,10.333862
2023-03-13T12:14:32.516Z,10.343933
2023-03-13T12:17:57.852Z,10.323792
2023-03-13T12:21:22.942Z,10.323792
2023-03-13T12:24:48.182Z,10.343933
2023-03-13T12:28:13.453Z,10.404358
2023-03-13T12:31:38.596Z,10.414429
2023-03-13T12:35:04.047Z,10.4245
2023-03-13T12:38:29.030Z,10.454712
2023-03-13T12:41:54.220Z,10.454712
2023-03-13T12:45:19.533Z,10.484924
2023-03-13T12:48:44.649Z,10.505066
2023-03-13T12:52:09.849Z,10.525208
2023-03-13T12:55:35.060Z,10.515137
2023-03-13T12:59:00.296Z,10.55542
2023-03-13T13:02:25.543Z,10.595703
2023-03-13T13:05:51.597Z,10.635986
2023-03-13T13:09:15.925Z,10.625916
2023-03-13T13:12:41.107Z,10.666199
2023-03-13T13:16:06.382Z,10.635986
2023-03-13T13:19:31.615Z,10.67627
2023-03-13T13:22:56.806Z,10.625916
2023-03-13T13:26:22.000Z,10.585632
2023-03-13T13:29:47.200Z,10.585632
2023-03-13T13:33:12.482Z,10.585632
2023-03-13T13:36:37.672Z,10.635986
2023-03-13T13:40:02.985Z,10.666199
2023-03-13T13:43:28.084Z,10.756836
2023-03-13T13:46:53.584Z,10.776978
2023-03-13T13:50:18.558Z,10.847473
2023-03-13T13:53:43.780Z,10.958252
2023-03-13T13:57:08.933Z,10.998535
2023-03-13T14:00:34.112Z,11.018677
2023-03-13T14:03:59.323Z,11.038818
2023-03-13T14:07:24.534Z,11.099243
2023-03-13T14:10:49.811Z,11.169739
2023-03-13T14:14:14.970Z,11.220093
2023-03-13T14:17:40.562Z,11.18988
2023-03-13T14:21:06.136Z,11.240234
2023-03-13T14:24:32.118Z,11.220093
2023-03-13T14:27:57.437Z,11.280518
2023-03-13T15:04:54.092Z,12.378235
2023-03-13T15:08:19.209Z,12.388306
2023-03-13T15:11:44.405Z,12.368164
2023-03-13T15:15:09.590Z,12.408447
2023-03-13T15:18:34.811Z,12.418518
2023-03-13T15:22:00.019Z,12.408447
2023-03-13T15:25:25.189Z,12.388306
2023-03-13T15:28:50.408Z,12.408447
2023-03-13T15:32:15.603Z,12.458801
2023-03-13T15:35:40.850Z,12.44873
2023-03-13T15:39:06.075Z,12.489014
2023-03-13T15:42:31.291Z,12.499084
2023-03-13T15:45:56.568Z,12.519226
2023-03-13T15:49:21.770Z,12.539368
2023-03-13T15:52:47.000Z,12.539368
2023-03-13T15:56:12.310Z,12.539368
2023-03-13T15:59:37.504Z,12.529297
2023-03-13T16:03:02.713Z,12.489014
2023-03-13T16:06:27.917Z,12.499084
2023-03-13T16:09:53.133Z,12.529297
2023-03-13T16:13:18.420Z,12.559509
2023-03-13T16:16:43.686Z,12.529297
2023-03-13T16:20:08.814Z,12.519226
2023-03-13T16:23:34.062Z,12.489014
2023-03-13T16:26:59.311Z,12.519226
2023-03-13T16:30:24.545Z,12.468872
2023-03-13T16:33:51.711Z,12.468872
2023-03-13T16:37:14.987Z,12.458801
2023-03-13T16:40:40.249Z,12.388306
2023-03-13T16:44:05.494Z,12.31781
2023-03-13T16:47:31.055Z,12.237244
2023-03-13T16:50:56.264Z,12.19696
2023-03-13T16:54:21.527Z,12.136536
2023-03-13T16:57:46.859Z,12.086182
2023-03-13T17:01:12.065Z,12.035828
2023-03-13T17:04:37.347Z,11.975403
2023-03-13T17:08:02.520Z,11.93512
2023-03-13T17:11:28.502Z,11.864624
2023-03-13T17:14:53.752Z,11.854553
2023-03-13T17:18:18.997Z,11.794128
2023-03-13T17:21:44.245Z,11.733704
2023-03-13T17:25:09.435Z,11.753845
2023-03-13T17:28:34.790Z,11.763916
2023-03-13T17:32:01.511Z,11.733704
2023-03-13T17:35:25.212Z,11.753845
2023-03-13T17:38:50.425Z,11.723633
2023-03-13T17:42:15.623Z,11.753845
2023-03-13T17:45:40.827Z,11.784058
2023-03-13T17:49:06.140Z,11.854553
2023-03-13T17:52:31.352Z,11.914978
2023-03-13T17:55:56.605Z,11.955261
2023-03-13T17:59:21.976Z,11.914978
